Time;durP1;ratioP1;P1;durP2;ratioP2;P2;SDS_P1;SDS_P2;PMS_P1;PMS_P2;Temp;Humidity;BMP_temperature;BMP_pressure;BME280_temperature;BME280_humidity;BME280_pressure;Samples;Min_cycle;Max_cycle;Signal;HPM_P1;HPM_P2
2021/11/17 02:25:43;;;;;;;32.63;15.80;;;6.60;99.90;;;;;;4936702;29;20426;-80
2021/11/17 02:28:43;;;;;;;38.87;17.07;;;6.70;99.90;;;;;;4949486;29;20482;-80
2021/11/17 02:31:55;;;;;;;41.20;17.80;;;6.60;99.90;;;;;;4948355;29;20408;-80
2021/11/17 02:34:56;;;;;;;39.03;17.80;;;6.60;99.90;;;;;;4918334;29;20408;-80
2021/11/17 02:37:52;;;;;;;38.20;17.70;;;6.70;99.90;;;;;;4895851;29;20401;-80
2021/11/17 02:40:52;;;;;;;39.93;16.43;;;6.60;99.90;;;;;;4893768;29;20432;-80
2021/11/17 02:43:49;;;;;;;24.20;14.07;;;6.50;99.90;;;;;;4930026;28;20433;-79
2021/11/17 02:46:40;;;;;;;26.57;14.27;;;6.50;99.90;;;;;;4926041;29;20471;-80
2021/11/17 02:49:33;;;;;;;47.23;17.40;;;6.70;99.90;;;;;;4914835;29;20476;-80
2021/11/17 02:52:15;;;;;;;32.67;14.87;;;6.60;99.90;;;;;;4914892;29;20391;-80
2021/11/17 02:55:07;;;;;;;31.27;15.20;;;6.60;99.90;;;;;;4854326;29;20392;-79
2021/11/17 02:57:50;;;;;;;27.97;13.57;;;6.80;99.90;;;;;;4890667;29;20470;-78
2021/11/17 03:00:47;;;;;;;30.73;14.53;;;6.50;99.90;;;;;;4918306;29;20417;-79
2021/11/17 03:03:41;;;;;;;35.20;14.67;;;6.40;99.90;;;;;;4897278;29;20388;-79
2021/11/17 03:06:38;;;;;;;35.40;18.07;;;6.50;99.90;;;;;;4904524;29;20464;-79
2021/11/17 03:09:55;;;;;;;22.07;11.50;;;6.40;99.90;;;;;;4927650;29;20452;-78
2021/11/17 03:13:03;;;;;;;26.50;13.77;;;6.50;99.90;;;;;;4947701;29;20434;-79
2021/11/17 03:16:04;;;;;;;28.10;13.53;;;6.50;99.90;;;;;;4933068;29;20420;-79
2021/11/17 03:19:11;;;;;;;34.70;14.67;;;6.50;99.90;;;;;;4946480;29;20403;-79
2021/11/17 03:22:08;;;;;;;27.83;14.00;;;6.50;99.90;;;;;;4929885;29;20456;-79
2021/11/17 03:24:56;;;;;;;35.40;14.30;;;6.40;99.90;;;;;;4924062;29;20451;-79
2021/11/17 03:27:45;;;;;;;32.83;16.97;;;6.50;99.90;;;;;;4891867;29;20512;-79
2021/11/17 03:30:29;;;;;;;38.10;14.20;;;6.60;99.90;;;;;;4906092;29;20392;-79
2021/11/17 03:33:36;;;;;;;29.50;13.07;;;6.50;99.90;;;;;;4892135;29;20380;-79
2021/11/17 03:36:28;;;;;;;56.87;15.50;;;6.50;99.90;;;;;;4890484;29;20419;-79
2021/11/17 03:39:21;;;;;;;28.33;17.70;;;6.50;99.90;;;;;;4892372;29;20396;-79
2021/11/17 03:42:12;;;;;;;23.40;14.40;;;6.60;99.90;;;;;;4914921;29;20427;-79
2021/11/17 03:45:03;;;;;;;27.43;14.57;;;6.80;99.90;;;;;;4926707;29;20447;-78
2021/11/17 03:47:42;;;;;;;32.17;13.30;;;6.70;99.90;;;;;;4881647;29;20440;-79
2021/11/17 03:50:39;;;;;;;22.20;11.00;;;6.60;99.90;;;;;;4908987;29;20412;-79
2021/11/17 03:53:35;;;;;;;22.57;12.40;;;6.70;99.90;;;;;;4908073;29;20463;-79
2021/11/17 03:56:24;;;;;;;35.67;15.67;;;6.60;99.90;;;;;;4917498;29;20391;-79
2021/11/17 03:59:06;;;;;;;25.60;14.23;;;6.60;99.90;;;;;;4924213;29;20392;-79
2021/11/17 04:01:50;;;;;;;33.13;15.00;;;6.50;99.90;;;;;;4915088;29;20395;-80
2021/11/17 04:04:37;;;;;;;36.00;14.37;;;6.50;99.90;;;;;;4931902;29;20458;-75
2021/11/17 04:07:24;;;;;;;19.13;10.40;;;6.60;99.90;;;;;;4927500;29;20455;-77
2021/11/17 04:10:07;;;;;;;20.10;11.40;;;6.40;99.90;;;;;;4915401;29;20834;-80
2021/11/17 04:12:47;;;;;;;30.53;13.00;;;6.40;99.90;;;;;;4929115;28;20398;-80
2021/11/17 04:15:38;;;;;;;21.73;10.70;;;6.30;99.90;;;;;;4900807;29;20790;-80
2021/11/17 04:18:35;;;;;;;29.93;12.47;;;6.50;99.90;;;;;;4917234;29;20502;-80
2021/11/17 04:21:19;;;;;;;35.13;15.57;;;6.40;99.90;;;;;;4982758;28;20918;-80
2021/11/17 04:24:01;;;;;;;31.27;12.20;;;6.70;99.90;;;;;;4952616;28;20803;-80
2021/11/17 04:26:45;;;;;;;21.03;12.67;;;6.80;99.90;;;;;;4926311;29;20441;-80
2021/11/17 04:29:38;;;;;;;26.40;10.90;;;6.90;99.90;;;;;;4908978;29;20421;-80
2021/11/17 04:32:27;;;;;;;23.30;12.50;;;7.00;99.90;;;;;;4932084;29;20386;-79
2021/11/17 04:35:37;;;;;;;26.93;13.50;;;6.90;99.90;;;;;;4931888;29;20382;-79
2021/11/17 04:38:19;;;;;;;25.60;11.57;;;6.60;99.90;;;;;;4945615;29;20947;-80
2021/11/17 04:41:07;;;;;;;25.67;11.37;;;6.40;99.90;;;;;;4899232;29;20459;-80
2021/11/17 04:43:46;;;;;;;20.53;11.13;;;6.60;99.90;;;;;;4938611;29;20442;-77
2021/11/17 04:46:38;;;;;;;21.77;10.87;;;6.70;99.90;;;;;;4946639;28;20444;-78
2021/11/17 04:49:24;;;;;;;19.60;11.70;;;6.60;99.90;;;;;;4956915;29;20429;-77
2021/11/17 04:52:07;;;;;;;24.90;11.17;;;6.50;99.90;;;;;;4997167;28;20417;-79
2021/11/17 04:55:00;;;;;;;20.37;11.17;;;6.40;99.90;;;;;;4972790;28;20920;-80
2021/11/17 04:57:50;;;;;;;24.17;11.00;;;6.60;99.90;;;;;;5006686;28;20363;-80
2021/11/17 05:00:49;;;;;;;20.83;11.10;;;6.50;99.90;;;;;;5005258;28;20470;-79
2021/11/17 05:03:32;;;;;;;25.83;10.80;;;6.50;99.90;;;;;;5007192;28;20925;-80
2021/11/17 05:06:12;;;;;;;22.10;11.70;;;6.60;99.90;;;;;;4982004;28;20465;-80
2021/11/17 05:08:57;;;;;;;20.03;10.00;;;6.60;99.90;;;;;;4934536;28;20387;-80
2021/11/17 05:11:54;;;;;;;22.13;10.70;;;6.70;99.90;;;;;;4950333;28;20405;-80
2021/11/17 05:14:41;;;;;;;27.50;10.30;;;6.60;99.90;;;;;;4965719;28;20462;-80
2021/11/17 05:17:55;;;;;;;31.03;11.73;;;6.70;99.90;;;;;;4993527;28;20426;-80
2021/11/17 05:20:52;;;;;;;16.20;10.33;;;6.90;99.90;;;;;;4986928;28;20402;-80
2021/11/17 05:23:42;;;;;;;13.00;8.73;;;7.00;99.90;;;;;;5005544;28;20435;-79
2021/11/17 05:26:29;;;;;;;17.70;9.60;;;7.00;99.90;;;;;;5018423;28;20437;-80
2021/11/17 05:29:33;;;;;;;19.03;10.20;;;7.20;99.90;;;;;;5000145;28;20523;-80
2021/11/17 05:32:16;;;;;;;14.00;8.23;;;7.20;99.90;;;;;;4968522;28;20416;-80
2021/11/17 05:35:12;;;;;;;16.60;10.13;;;7.20;99.90;;;;;;4985283;28;20888;-80
2021/11/17 05:38:12;;;;;;;24.00;10.20;;;7.20;99.90;;;;;;5013328;28;20378;-80
2021/11/17 05:41:06;;;;;;;12.97;8.97;;;7.20;99.90;;;;;;5002049;28;20416;-80
2021/11/17 05:43:49;;;;;;;16.63;9.60;;;7.20;99.90;;;;;;4947082;29;20453;-80
2021/11/17 05:46:37;;;;;;;14.77;7.83;;;7.20;99.90;;;;;;4941201;29;20500;-80
2021/11/17 05:49:22;;;;;;;14.20;7.90;;;7.10;99.90;;;;;;4944632;29;20787;-77
2021/11/17 05:52:23;;;;;;;9.10;8.17;;;7.20;99.90;;;;;;4961880;29;20370;-80
2021/11/17 05:55:07;;;;;;;11.30;7.90;;;7.20;99.90;;;;;;4944333;29;20401;-80
2021/11/17 05:58:15;;;;;;;13.73;7.63;;;7.20;99.90;;;;;;4945472;28;20752;-80
2021/11/17 06:01:02;;;;;;;12.03;6.60;;;7.30;99.90;;;;;;4981810;28;20919;-80
2021/11/17 06:04:00;;;;;;;11.20;7.50;;;7.20;99.90;;;;;;4984929;28;20410;-80
2021/11/17 06:06:28;;;;;;;11.63;6.67;;;7.20;99.90;;;;;;4992758;28;20446;-80
2021/11/17 06:09:19;;;;;;;16.80;8.30;;;7.10;99.90;;;;;;5001757;28;20499;-80
2021/11/17 06:12:09;;;;;;;10.10;6.00;;;7.00;99.90;;;;;;4933074;29;20406;-81
2021/11/17 06:15:02;;;;;;;10.13;6.27;;;7.00;99.90;;;;;;4921305;29;20777;-80
2021/11/17 06:17:31;;;;;;;12.33;5.47;;;7.00;99.90;;;;;;4902890;29;20850;-80
2021/11/17 06:20:24;;;;;;;13.10;6.23;;;7.00;99.90;;;;;;4902478;29;20455;-80
2021/11/17 06:23:03;;;;;;;7.67;6.03;;;7.10;99.90;;;;;;4865289;29;20420;-80
2021/11/17 06:25:50;;;;;;;11.30;6.73;;;7.10;99.90;;;;;;4859819;29;20509;-78
2021/11/17 06:28:23;;;;;;;6.80;5.50;;;7.20;99.90;;;;;;4865319;29;20445;-78
2021/11/17 06:30:52;;;;;;;13.40;6.60;;;7.20;99.90;;;;;;4845360;29;20503;-80
2021/11/17 06:33:19;;;;;;;6.10;5.00;;;7.10;99.90;;;;;;4876068;29;20968;-80
2021/11/17 06:35:48;;;;;;;10.90;7.00;;;7.10;99.90;;;;;;4875374;29;20445;-79
2021/11/17 06:38:19;;;;;;;11.80;7.67;;;7.20;99.90;;;;;;4873177;29;20435;-79
2021/11/17 06:40:49;;;;;;;9.80;6.03;;;7.10;99.90;;;;;;4871189;29;20979;-80
2021/11/17 06:43:15;;;;;;;8.40;5.43;;;7.10;99.90;;;;;;4829030;29;20559;-80
2021/11/17 06:45:45;;;;;;;11.23;6.37;;;7.10;99.90;;;;;;4810898;29;20436;-80
2021/11/17 06:48:13;;;;;;;9.80;6.40;;;7.10;99.90;;;;;;4797521;29;20418;-80
2021/11/17 06:50:46;;;;;;;8.97;6.33;;;7.10;99.90;;;;;;4804327;29;20843;-80
2021/11/17 06:53:18;;;;;;;8.33;5.27;;;7.10;99.90;;;;;;4835092;29;20438;-80
2021/11/17 06:55:45;;;;;;;15.83;6.87;;;7.10;99.90;;;;;;4830545;29;20456;-80
2021/11/17 06:58:14;;;;;;;7.53;4.97;;;7.00;99.90;;;;;;4840830;29;20399;-79
2021/11/17 07:00:49;;;;;;;8.83;5.47;;;7.10;99.90;;;;;;4841470;29;20433;-79
2021/11/17 07:03:39;;;;;;;10.17;6.67;;;6.80;99.90;;;;;;4837034;29;20473;-79
2021/11/17 07:06:06;;;;;;;10.37;5.87;;;6.50;99.90;;;;;;4856480;29;20567;-80
2021/11/17 07:08:56;;;;;;;11.23;5.70;;;6.60;99.90;;;;;;4880742;29;20928;-78
2021/11/17 07:11:37;;;;;;;11.17;6.80;;;6.70;99.90;;;;;;4857767;29;20547;-80
2021/11/17 07:14:07;;;;;;;7.60;5.37;;;6.90;99.90;;;;;;4874295;29;20434;-80
2021/11/17 07:16:41;;;;;;;9.77;5.33;;;7.00;99.90;;;;;;4891506;29;20411;-79
2021/11/17 07:19:10;;;;;;;8.63;5.87;;;7.10;99.90;;;;;;4924226;29;20511;-81
2021/11/17 07:21:42;;;;;;;10.90;6.00;;;7.10;99.90;;;;;;4893062;29;20432;-80
2021/11/17 07:24:37;;;;;;;11.27;6.33;;;7.20;99.90;;;;;;4861994;29;20432;-80
2021/11/17 07:27:07;;;;;;;8.13;5.43;;;7.20;99.90;;;;;;4873947;29;20443;-80
2021/11/17 07:29:42;;;;;;;6.97;6.10;;;7.10;99.90;;;;;;4835724;29;20473;-80
2021/11/17 07:32:08;;;;;;;8.53;5.90;;;7.00;99.90;;;;;;4837135;29;20457;-80
2021/11/17 07:34:36;;;;;;;8.73;5.83;;;6.60;99.90;;;;;;4804011;29;20425;-80
2021/11/17 07:37:08;;;;;;;9.37;6.07;;;6.30;99.90;;;;;;4835468;29;20480;-79
2021/11/17 07:39:39;;;;;;;9.80;6.10;;;6.30;99.90;;;;;;4856807;29;20451;-80
2021/11/17 07:42:08;;;;;;;9.17;6.90;;;6.50;99.90;;;;;;4857768;29;20203;-81
2021/11/17 07:44:35;;;;;;;6.57;5.13;;;6.50;99.90;;;;;;4845363;29;20451;-80
2021/11/17 07:47:03;;;;;;;8.40;6.00;;;6.50;99.90;;;;;;4824296;29;20471;-80
2021/11/17 07:49:32;;;;;;;11.03;5.20;;;6.60;99.90;;;;;;4791393;29;20873;-81
2021/11/17 07:52:08;;;;;;;8.10;4.83;;;6.70;99.90;;;;;;4798476;29;20474;-80
2021/11/17 07:54:35;;;;;;;7.77;5.00;;;6.50;99.90;;;;;;4769067;30;20457;-81
2021/11/17 07:57:03;;;;;;;9.13;5.83;;;6.60;99.90;;;;;;4785606;29;20593;-80
2021/11/17 07:59:35;;;;;;;8.70;5.50;;;6.60;99.90;;;;;;4818639;29;20413;-80
2021/11/17 08:02:07;;;;;;;10.73;6.17;;;6.40;99.90;;;;;;4934744;29;20453;-81
2021/11/17 08:04:36;;;;;;;9.30;6.50;;;6.70;99.90;;;;;;4928765;29;20460;-80
2021/11/17 08:07:10;;;;;;;9.63;6.67;;;6.90;99.90;;;;;;4929857;29;20443;-80
2021/11/17 08:09:43;;;;;;;16.67;6.10;;;7.00;99.90;;;;;;4892035;29;20907;-80
2021/11/17 08:12:16;;;;;;;7.07;5.50;;;7.10;99.90;;;;;;4883547;29;20441;-80
2021/11/17 08:15:02;;;;;;;10.63;7.77;;;7.10;99.90;;;;;;4861694;29;20437;-80
2021/11/17 08:17:29;;;;;;;7.83;5.70;;;6.80;99.90;;;;;;4792766;29;20917;-80
2021/11/17 08:19:58;;;;;;;7.87;5.57;;;7.00;99.90;;;;;;4778431;29;20416;-80
2021/11/17 08:22:27;;;;;;;9.53;5.20;;;6.70;99.90;;;;;;4823906;29;20560;-79
2021/11/17 08:25:01;;;;;;;10.00;4.87;;;6.70;99.90;;;;;;4777142;29;20459;-81
2021/11/17 08:27:30;;;;;;;8.60;5.60;;;6.90;99.90;;;;;;4815204;29;20451;-80
2021/11/17 08:29:59;;;;;;;4.13;3.53;;;7.00;99.90;;;;;;4839213;29;20267;-80
2021/11/17 08:32:27;;;;;;;4.83;4.27;;;7.00;99.90;;;;;;4872153;29;20453;-78
2021/11/17 08:35:20;;;;;;;10.00;4.97;;;7.00;99.90;;;;;;4894810;29;20409;-78
2021/11/17 08:37:47;;;;;;;5.53;3.63;;;7.10;99.90;;;;;;4855981;29;20448;-78
2021/11/17 08:40:38;;;;;;;8.65;5.60;;;7.10;99.90;;;;;;4873683;29;20420;-80
2021/11/17 08:43:07;;;;;;;5.73;5.00;;;7.10;99.90;;;;;;4836289;29;20219;-79
2021/11/17 08:45:40;;;;;;;6.10;4.17;;;6.90;99.90;;;;;;4845278;29;20487;-80
2021/11/17 08:48:08;;;;;;;4.70;3.30;;;7.10;99.90;;;;;;4870186;29;20425;-80
2021/11/17 08:50:39;;;;;;;7.10;4.77;;;7.20;99.90;;;;;;4908425;29;20524;-80
2021/11/17 08:53:12;;;;;;;6.17;4.77;;;7.10;99.90;;;;;;4878635;29;20415;-80
2021/11/17 08:55:43;;;;;;;9.53;4.10;;;7.10;99.90;;;;;;4907554;29;20471;-79
2021/11/17 08:58:17;;;;;;;7.57;3.93;;;7.20;99.90;;;;;;4897983;29;20491;-80
2021/11/17 09:00:47;;;;;;;7.10;4.47;;;7.30;99.90;;;;;;4842773;29;21206;-80
2021/11/17 09:03:13;;;;;;;4.37;3.97;;;7.30;99.90;;;;;;4852484;29;20495;-79
2021/11/17 09:05:45;;;;;;;6.88;5.28;;;7.30;99.90;;;;;;4857391;29;20931;-79
2021/11/17 09:08:15;;;;;;;8.23;5.97;;;7.20;99.90;;;;;;4868183;29;20450;-80
2021/11/17 09:10:44;;;;;;;4.53;3.50;;;7.20;99.90;;;;;;4879650;29;20370;-81
2021/11/17 09:13:13;;;;;;;8.43;4.80;;;7.10;99.90;;;;;;4907520;29;20527;-80
2021/11/17 09:15:43;;;;;;;6.73;4.70;;;7.00;99.90;;;;;;4952984;28;20409;-79
2021/11/17 09:19:02;;;;;;;6.60;4.33;;;6.80;99.90;;;;;;4945288;28;20913;-79
2021/11/17 09:21:32;;;;;;;11.37;5.20;;;6.90;99.90;;;;;;4892242;29;20450;-79
2021/11/17 09:23:58;;;;;;;8.70;4.87;;;7.00;99.90;;;;;;4925798;29;20421;-79
2021/11/17 09:26:24;;;;;;;4.90;4.33;;;7.00;99.90;;;;;;4915542;29;20446;-77
2021/11/17 09:28:52;;;;;;;8.30;5.63;;;6.80;99.90;;;;;;4913214;29;20654;-79
2021/11/17 09:31:17;;;;;;;8.57;5.67;;;7.00;99.90;;;;;;4923680;29;20424;-79
2021/11/17 09:33:46;;;;;;;7.77;6.20;;;7.00;99.90;;;;;;4950344;28;20531;-79
2021/11/17 09:36:14;;;;;;;6.13;4.87;;;7.10;99.90;;;;;;4935589;28;20443;-81
2021/11/17 09:38:40;;;;;;;10.30;6.93;;;7.10;99.90;;;;;;4942716;29;20493;-80
2021/11/17 09:41:12;;;;;;;6.33;3.70;;;7.00;99.90;;;;;;4955328;28;20442;-80
2021/11/17 09:43:42;;;;;;;11.33;3.73;;;7.00;99.90;;;;;;4940865;29;20466;-81
2021/11/17 09:46:14;;;;;;;7.27;5.33;;;7.00;99.90;;;;;;4948575;28;20482;-80
2021/11/17 09:48:44;;;;;;;3.43;3.07;;;7.10;99.90;;;;;;4994264;28;20426;-79
2021/11/17 09:51:16;;;;;;;5.67;4.17;;;7.00;99.90;;;;;;5016758;28;20430;-80
2021/11/17 09:54:05;;;;;;;5.17;4.20;;;7.00;99.90;;;;;;5019275;28;20402;-80
2021/11/17 09:56:36;;;;;;;5.17;4.67;;;7.20;99.90;;;;;;5028104;28;20535;-80
2021/11/17 09:59:14;;;;;;;10.73;4.90;;;7.20;99.90;;;;;;5108644;28;20487;-80
2021/11/17 10:01:54;;;;;;;4.80;3.63;;;7.20;99.90;;;;;;5121899;28;20416;-80
2021/11/17 10:04:40;;;;;;;10.20;5.90;;;7.30;99.90;;;;;;5102938;28;20402;-80
2021/11/17 10:13:17;;;;;;;6.07;4.60;;;7.30;99.90;;;;;;5101510;28;20398;-79
2021/11/17 10:15:47;;;;;;;8.23;5.10;;;7.20;99.90;;;;;;5074742;28;20434;-80
2021/11/17 10:18:35;;;;;;;7.83;5.07;;;7.40;99.90;;;;;;5098513;28;20406;-79
2021/11/17 10:21:06;;;;;;;6.20;4.13;;;7.30;99.90;;;;;;5102459;28;20427;-80
2021/11/17 10:23:38;;;;;;;6.53;4.50;;;7.40;99.90;;;;;;5113704;28;20431;-80
2021/11/17 10:26:12;;;;;;;4.50;3.87;;;7.40;99.90;;;;;;5091323;28;20422;-80
2021/11/17 10:28:47;;;;;;;6.03;4.23;;;7.30;99.90;;;;;;5125411;27;20398;-80
2021/11/17 10:31:45;;;;;;;4.60;3.60;;;7.40;99.90;;;;;;5116363;28;20468;-81
2021/11/17 10:34:28;;;;;;;3.97;3.60;;;7.40;99.90;;;;;;5112034;28;20412;-80
2021/11/17 10:37:23;;;;;;;7.80;4.70;;;7.50;99.90;;;;;;5120951;28;20420;-80
2021/11/17 10:39:49;;;;;;;6.10;4.93;;;7.50;99.90;;;;;;5104959;28;20516;-79
2021/11/17 10:42:32;;;;;;;9.67;4.80;;;7.60;99.90;;;;;;5126196;28;20423;-81
2021/11/17 10:45:22;;;;;;;4.80;3.40;;;7.60;99.90;;;;;;5121581;28;20468;-80
2021/11/17 10:47:50;;;;;;;5.80;4.83;;;7.70;99.90;;;;;;5122340;28;20423;-80
2021/11/17 10:50:25;;;;;;;4.83;4.33;;;7.70;99.90;;;;;;5117478;28;20458;-80
2021/11/17 10:53:01;;;;;;;5.03;3.90;;;7.70;99.90;;;;;;5126944;28;20876;-80
2021/11/17 10:55:42;;;;;;;5.40;3.90;;;7.60;99.90;;;;;;5088777;28;20390;-79
2021/11/17 10:58:13;;;;;;;9.03;4.80;;;7.60;99.90;;;;;;5101688;28;21112;-81
2021/11/17 11:00:47;;;;;;;4.43;3.97;;;7.60;99.90;;;;;;5057096;28;20502;-81
2021/11/17 11:03:15;;;;;;;9.27;4.80;;;7.70;99.90;;;;;;5044720;28;20810;-79
2021/11/17 11:06:03;;;;;;;5.93;4.10;;;7.60;99.90;;;;;;5004454;28;20767;-79
2021/11/17 11:08:42;;;;;;;5.40;4.80;;;7.50;99.90;;;;;;5023445;28;20543;-79
2021/11/17 11:11:11;;;;;;;8.13;5.57;;;7.60;99.90;;;;;;5030782;28;20398;-80
2021/11/17 11:14:00;;;;;;;6.00;3.87;;;7.40;99.90;;;;;;5019735;28;20420;-79
2021/11/17 11:16:46;;;;;;;4.17;3.77;;;6.90;99.90;;;;;;5027942;28;20458;-80
2021/11/17 11:19:28;;;;;;;8.85;5.80;;;6.70;99.90;;;;;;5025954;28;20433;-80
2021/11/17 11:22:08;;;;;;;7.60;5.20;;;6.80;99.90;;;;;;5027343;28;20208;-80
2021/11/17 11:24:38;;;;;;;5.77;4.70;;;6.90;99.90;;;;;;5027568;28;20995;-80
2021/11/17 11:27:17;;;;;;;6.00;3.80;;;7.10;99.90;;;;;;5027413;28;20497;-80
2021/11/17 11:29:48;;;;;;;5.30;3.83;;;7.20;99.90;;;;;;5025008;28;20850;-80
2021/11/17 11:32:43;;;;;;;4.80;4.03;;;7.20;99.90;;;;;;5023144;28;20406;-79
2021/11/17 11:35:17;;;;;;;4.90;3.80;;;7.40;99.90;;;;;;5014756;28;20451;-80
2021/11/17 11:38:01;;;;;;;6.77;2.73;;;7.40;99.90;;;;;;5073532;28;20414;-80
2021/11/17 11:40:52;;;;;;;4.63;3.53;;;7.50;99.90;;;;;;5109830;28;20394;-80
2021/11/17 11:43:24;;;;;;;6.63;4.67;;;7.50;99.90;;;;;;5108997;28;21092;-79
2021/11/17 11:45:54;;;;;;;6.07;4.37;;;7.60;99.90;;;;;;5044221;28;20474;-79
2021/11/17 11:48:57;;;;;;;4.40;3.20;;;7.60;99.90;;;;;;5011154;28;20507;-80
2021/11/17 11:51:51;;;;;;;3.70;3.40;;;7.50;99.90;;;;;;5033738;28;20420;-81
2021/11/17 11:54:23;;;;;;;4.07;3.33;;;7.60;99.90;;;;;;5013101;28;20821;-80
2021/11/17 11:56:54;;;;;;;5.30;3.43;;;7.50;99.90;;;;;;5010672;28;20513;-80
2021/11/17 11:59:25;;;;;;;4.77;3.50;;;7.50;99.90;;;;;;5044917;28;20604;-79
2021/11/17 12:02:19;;;;;;;4.80;3.47;;;7.50;99.90;;;;;;5020549;28;20425;-81
2021/11/17 12:04:48;;;;;;;4.40;3.60;;;7.50;99.90;;;;;;5034883;28;21005;-81
2021/11/17 12:07:19;;;;;;;6.47;3.97;;;7.50;99.90;;;;;;5049388;28;20949;-81
2021/11/17 12:10:02;;;;;;;2.80;2.50;;;7.50;99.90;;;;;;5047583;28;20390;-80
2021/11/17 12:12:32;;;;;;;3.13;2.63;;;7.60;99.90;;;;;;5045176;28;20408;-78
2021/11/17 12:15:21;;;;;;;3.60;3.20;;;7.60;99.90;;;;;;4975965;28;20519;-80
2021/11/17 12:17:49;;;;;;;3.90;3.20;;;7.60;99.90;;;;;;5044793;28;20803;-80
2021/11/17 12:20:24;;;;;;;4.60;3.83;;;7.60;99.90;;;;;;5049014;28;20501;-80
2021/11/17 12:22:55;;;;;;;4.70;3.80;;;7.60;99.90;;;;;;5053754;28;20435;-81
2021/11/17 12:25:30;;;;;;;3.80;2.30;;;7.60;99.90;;;;;;5041729;28;20439;-81
2021/11/17 12:28:03;;;;;;;3.23;2.83;;;7.60;99.90;;;;;;5052170;28;20524;-81
2021/11/17 12:30:39;;;;;;;3.97;2.60;;;7.60;99.90;;;;;;5054140;28;20447;-80
2021/11/17 12:33:20;;;;;;;5.60;3.53;;;7.50;99.90;;;;;;5045283;28;20403;-80
2021/11/17 12:36:03;;;;;;;4.77;3.17;;;7.40;99.90;;;;;;5044765;28;20401;-80
2021/11/17 12:38:35;;;;;;;5.43;3.50;;;7.20;99.90;;;;;;5045549;28;20421;-80
2021/11/17 12:41:09;;;;;;;6.47;4.53;;;6.90;99.90;;;;;;5046839;28;20412;-79
2021/11/17 12:43:44;;;;;;;5.07;4.07;;;7.10;99.90;;;;;;5058025;28;20451;-79
2021/11/17 12:46:30;;;;;;;7.30;4.63;;;7.30;99.90;;;;;;5092082;28;20515;-80
2021/11/17 12:49:13;;;;;;;4.53;4.13;;;7.40;99.90;;;;;;5122859;28;20382;-80
2021/11/17 12:51:53;;;;;;;7.43;5.40;;;7.50;99.90;;;;;;5106380;28;20452;-81
2021/11/17 12:54:28;;;;;;;6.07;3.87;;;7.50;99.90;;;;;;5102197;28;20390;-79
2021/11/17 12:57:01;;;;;;;7.40;3.83;;;7.40;99.90;;;;;;5120369;28;20405;-80
2021/11/17 12:59:37;;;;;;;4.37;3.60;;;7.30;99.90;;;;;;5118455;28;20406;-79
2021/11/17 13:02:26;;;;;;;4.00;3.60;;;7.30;99.90;;;;;;5100855;28;20343;-79
2021/11/17 13:05:13;;;;;;;5.70;4.00;;;7.20;99.90;;;;;;5095438;28;20193;-78
2021/11/17 13:07:47;;;;;;;5.47;4.97;;;7.00;99.90;;;;;;5110512;27;21848;-80
2021/11/17 13:10:34;;;;;;;4.30;3.87;;;7.10;99.90;;;;;;5111512;28;20387;-80
2021/11/17 13:13:17;;;;;;;5.33;3.77;;;7.10;99.90;;;;;;5076552;28;20386;-81
2021/11/17 13:15:59;;;;;;;5.77;3.77;;;7.20;99.90;;;;;;5096300;28;20417;-81
2021/11/17 13:18:53;;;;;;;4.00;3.60;;;7.20;99.90;;;;;;5083115;27;21202;-81
2021/11/17 13:21:31;;;;;;;4.00;3.10;;;7.20;99.90;;;;;;5106159;28;20430;-81
2021/11/17 13:24:08;;;;;;;5.00;3.03;;;7.20;99.90;;;;;;5110040;28;20427;-80
2021/11/17 13:26:42;;;;;;;5.20;3.60;;;7.20;99.90;;;;;;5101733;27;20451;-78
2021/11/17 13:29:27;;;;;;;4.97;3.03;;;7.10;99.90;;;;;;5104922;27;20418;-80
2021/11/17 13:32:19;;;;;;;3.30;3.00;;;7.10;99.90;;;;;;5108326;27;20853;-81
2021/11/17 13:34:49;;;;;;;4.20;3.30;;;7.00;99.90;;;;;;5087227;28;20407;-80
2021/11/17 13:37:20;;;;;;;4.40;2.90;;;7.10;99.90;;;;;;5102095;28;21059;-79
2021/11/17 13:39:51;;;;;;;3.87;3.47;;;7.00;99.90;;;;;;5066882;27;20402;-80
2021/11/17 13:42:17;;;;;;;4.77;4.27;;;7.10;99.90;;;;;;5088856;27;20414;-80
2021/11/17 13:44:44;;;;;;;3.50;3.20;;;7.20;99.90;;;;;;5103611;28;21026;-81
2021/11/17 13:47:13;;;;;;;5.40;3.40;;;7.20;99.90;;;;;;5083942;28;20644;-80
2021/11/17 13:49:43;;;;;;;8.23;2.90;;;7.20;99.90;;;;;;5105969;27;20426;-81
2021/11/17 13:52:12;;;;;;;4.47;2.70;;;7.20;99.90;;;;;;5098268;28;20410;-79
2021/11/17 13:54:39;;;;;;;3.07;2.77;;;7.00;99.90;;;;;;5084990;28;21040;-81
2021/11/17 13:57:07;;;;;;;3.20;2.93;;;7.10;99.90;;;;;;5108928;27;20973;-81
2021/11/17 13:59:34;;;;;;;4.00;2.77;;;7.20;99.90;;;;;;5049302;28;20490;-81
2021/11/17 14:02:00;;;;;;;8.13;3.50;;;7.20;99.90;;;;;;5102218;28;20439;-81
2021/11/17 14:04:27;;;;;;;6.97;2.63;;;7.20;99.90;;;;;;5086790;28;20459;-81
2021/11/17 14:06:55;;;;;;;2.70;2.30;;;7.20;99.90;;;;;;5088991;28;20460;-81
2021/11/17 14:09:22;;;;;;;3.40;3.10;;;7.10;99.90;;;;;;5098107;28;20402;-80
2021/11/17 14:11:48;;;;;;;9.70;4.07;;;7.10;99.90;;;;;;5100039;28;20441;-80
2021/11/17 14:14:14;;;;;;;3.67;3.37;;;7.20;99.90;;;;;;5105734;28;20879;-80
2021/11/17 14:16:41;;;;;;;3.03;2.67;;;7.30;99.90;;;;;;5105530;28;20451;-80
2021/11/17 14:19:07;;;;;;;3.80;3.23;;;7.30;99.90;;;;;;5100975;28;20408;-81
2021/11/17 14:21:33;;;;;;;7.50;4.10;;;7.30;99.90;;;;;;5094468;28;20510;-81
2021/11/17 14:23:59;;;;;;;5.00;3.57;;;7.30;99.90;;;;;;5108667;27;20451;-81
2021/11/17 14:26:25;;;;;;;6.87;4.40;;;7.20;99.90;;;;;;5118196;28;20755;-81
2021/11/17 14:28:55;;;;;;;4.07;3.67;;;7.30;99.90;;;;;;5104030;28;20762;-81
2021/11/17 14:31:33;;;;;;;4.00;3.60;;;7.00;99.90;;;;;;5109678;27;20808;-80
2021/11/17 14:34:01;;;;;;;5.43;3.80;;;6.60;99.90;;;;;;5092187;28;20406;-82
2021/11/17 14:36:31;;;;;;;4.80;3.63;;;6.80;99.90;;;;;;5092246;28;20818;-81
2021/11/17 14:38:57;;;;;;;7.30;5.68;;;6.60;99.90;;;;;;5091700;28;20413;-81
2021/11/17 14:41:23;;;;;;;3.90;3.23;;;6.50;99.90;;;;;;5110413;28;20210;-80
2021/11/17 14:43:57;;;;;;;3.67;3.10;;;6.60;99.90;;;;;;5085626;28;20442;-79
2021/11/17 14:46:44;;;;;;;6.03;4.23;;;6.60;99.90;;;;;;5056379;28;20333;-80
2021/11/17 14:49:32;;;;;;;4.63;3.33;;;6.90;99.90;;;;;;5081064;28;20435;-80
2021/11/17 14:52:05;;;;;;;4.80;3.87;;;7.00;99.90;;;;;;5003067;28;20406;-80
2021/11/17 14:54:37;;;;;;;4.87;2.90;;;6.90;99.90;;;;;;5007478;28;20403;-80
2021/11/17 14:57:06;;;;;;;4.80;3.80;;;7.00;99.90;;;;;;4988470;28;20467;-80
2021/11/17 14:59:57;;;;;;;3.40;3.10;;;7.00;99.90;;;;;;4945163;29;20417;-80
2021/11/17 15:02:29;;;;;;;4.03;3.73;;;7.10;99.90;;;;;;4930734;29;20470;-79
2021/11/17 15:05:26;;;;;;;4.90;3.60;;;7.20;99.90;;;;;;4878329;29;20485;-80
2021/11/17 15:08:09;;;;;;;3.97;3.10;;;7.20;99.90;;;;;;4922863;29;20451;-79
2021/11/17 15:10:56;;;;;;;5.33;4.07;;;6.70;99.90;;;;;;4873179;29;20426;-79
2021/11/17 15:13:23;;;;;;;3.10;2.90;;;6.90;99.90;;;;;;4898460;29;20420;-79
2021/11/17 15:15:56;;;;;;;12.90;4.33;;;7.10;99.90;;;;;;4890373;29;20926;-80
2021/11/17 15:18:30;;;;;;;5.20;4.67;;;7.10;99.90;;;;;;4886427;29;20453;-79
2021/11/17 15:21:19;;;;;;;6.60;4.63;;;7.20;99.90;;;;;;4854863;29;20465;-79
2021/11/17 15:23:53;;;;;;;4.90;3.43;;;7.10;99.90;;;;;;4830235;29;20480;-79
2021/11/17 15:27:00;;;;;;;7.13;4.60;;;7.10;99.90;;;;;;4817183;29;20451;-80
2021/11/17 15:29:30;;;;;;;5.83;3.67;;;7.10;99.90;;;;;;4803853;29;20512;-80
2021/11/17 15:31:58;;;;;;;6.37;4.60;;;7.00;99.90;;;;;;4808057;29;20438;-79
2021/11/17 15:34:28;;;;;;;5.80;4.50;;;6.80;99.90;;;;;;4807754;29;20434;-79
2021/11/17 15:36:58;;;;;;;5.17;4.70;;;6.60;99.90;;;;;;4866754;29;20499;-80
2021/11/17 15:39:36;;;;;;;11.90;5.23;;;6.60;99.90;;;;;;4891540;29;20914;-80
2021/11/17 15:42:04;;;;;;;4.30;3.90;;;6.70;99.90;;;;;;4893224;29;20456;-80
2021/11/17 15:44:40;;;;;;;5.23;3.50;;;6.70;99.90;;;;;;4874888;29;20949;-79
2021/11/17 15:47:09;;;;;;;4.20;3.50;;;6.80;99.90;;;;;;4885245;29;20473;-79
2021/11/17 15:49:41;;;;;;;6.37;4.60;;;6.90;99.90;;;;;;4921337;29;20478;-79
2021/11/17 15:52:28;;;;;;;8.43;5.53;;;6.80;99.90;;;;;;4894141;29;20429;-80
2021/11/17 15:54:57;;;;;;;7.60;5.53;;;6.70;99.90;;;;;;4912608;29;20490;-79
2021/11/17 15:57:23;;;;;;;7.33;4.63;;;6.80;99.90;;;;;;4883383;29;20913;-80
2021/11/17 16:00:22;;;;;;;5.47;4.63;;;6.90;99.90;;;;;;4904362;29;20396;-81
2021/11/17 16:02:51;;;;;;;6.70;4.50;;;7.00;99.90;;;;;;4900562;29;20452;-81
2021/11/17 16:05:18;;;;;;;7.73;4.37;;;7.00;99.90;;;;;;4914076;28;20424;-81
2021/11/17 16:07:52;;;;;;;5.53;4.40;;;7.10;99.90;;;;;;4898064;29;20541;-80
2021/11/17 16:10:23;;;;;;;5.80;3.60;;;7.10;99.90;;;;;;4929003;28;21032;-81
2021/11/17 16:12:50;;;;;;;5.40;4.40;;;7.10;99.90;;;;;;4967725;28;20534;-81
2021/11/17 16:15:17;;;;;;;4.60;4.03;;;7.10;99.90;;;;;;4993039;28;20421;-80
2021/11/17 16:17:44;;;;;;;5.60;5.10;;;7.10;99.90;;;;;;4995434;28;20417;-78
2021/11/17 16:20:14;;;;;;;8.07;5.30;;;7.10;99.90;;;;;;5010054;28;20412;-80
2021/11/17 16:23:01;;;;;;;5.33;4.07;;;7.10;99.90;;;;;;5013338;28;20432;-81